sensor_id;sensor_type;location;lat;lon;timestamp;temperature;humidity
47482;DHT22;33219;47.410;9.730;2022-12-29T00:00:30;2.70;99.90
47482;DHT22;33219;47.410;9.730;2022-12-29T00:02:58;2.90;99.90
47482;DHT22;33219;47.410;9.730;2022-12-29T00:05:25;3.00;99.90
47482;DHT22;33219;47.410;9.730;2022-12-29T00:07:53;3.00;99.90
47482;DHT22;33219;47.410;9.730;2022-12-29T00:10:20;2.90;99.90
47482;DHT22;33219;47.410;9.730;2022-12-29T00:12:48;2.70;99.90
47482;DHT22;33219;47.410;9.730;2022-12-29T00:15:35;2.50;99.90
47482;DHT22;33219;47.410;9.730;2022-12-29T00:18:06;2.40;99.90
47482;DHT22;33219;47.410;9.730;2022-12-29T00:20:37;2.40;99.90
47482;DHT22;33219;47.410;9.730;2022-12-29T00:23:23;2.30;99.90
47482;DHT22;33219;47.410;9.730;2022-12-29T00:26:16;2.30;99.90
47482;DHT22;33219;47.410;9.730;2022-12-29T00:29:02;2.30;99.90
47482;DHT22;33219;47.410;9.730;2022-12-29T00:31:47;2.30;99.90
47482;DHT22;33219;47.410;9.730;2022-12-29T00:34:33;2.30;99.90
47482;DHT22;33219;47.410;9.730;2022-12-29T00:37:19;2.30;99.90
47482;DHT22;33219;47.410;9.730;2022-12-29T00:39:48;2.20;99.90
47482;DHT22;33219;47.410;9.730;2022-12-29T00:42:34;2.30;99.90
47482;DHT22;33219;47.410;9.730;2022-12-29T00:45:19;2.60;99.90
47482;DHT22;33219;47.410;9.730;2022-12-29T00:47:47;2.70;99.90
47482;DHT22;33219;47.410;9.730;2022-12-29T00:50:14;2.90;99.90
47482;DHT22;33219;47.410;9.730;2022-12-29T00:52:42;3.00;99.90
47482;DHT22;33219;47.410;9.730;2022-12-29T00:55:09;2.90;99.90
47482;DHT22;33219;47.410;9.730;2022-12-29T00:57:37;3.00;99.90
47482;DHT22;33219;47.410;9.730;2022-12-29T01:00:05;2.90;99.90
47482;DHT22;33219;47.410;9.730;2022-12-29T01:02:33;2.80;99.90
47482;DHT22;33219;47.410;9.730;2022-12-29T01:05:00;2.80;99.90
47482;DHT22;33219;47.410;9.730;2022-12-29T01:07:28;2.90;99.90
47482;DHT22;33219;47.410;9.730;2022-12-29T01:09:58;3.00;99.90
47482;DHT22;33219;47.410;9.730;2022-12-29T01:12:38;3.00;99.90
47482;DHT22;33219;47.410;9.730;2022-12-29T01:15:12;3.10;99.90
47482;DHT22;33219;47.410;9.730;2022-12-29T01:17:40;3.10;99.90
47482;DHT22;33219;47.410;9.730;2022-12-29T01:20:08;2.90;99.90
47482;DHT22;33219;47.410;9.730;2022-12-29T01:22:37;2.70;99.90
47482;DHT22;33219;47.410;9.730;2022-12-29T01:25:06;2.70;99.90
47482;DHT22;33219;47.410;9.730;2022-12-29T01:27:33;2.70;99.90
47482;DHT22;33219;47.410;9.730;2022-12-29T01:30:01;2.90;99.90
47482;DHT22;33219;47.410;9.730;2022-12-29T01:32:29;3.00;99.90
47482;DHT22;33219;47.410;9.730;2022-12-29T01:34:56;3.30;99.90
47482;DHT22;33219;47.410;9.730;2022-12-29T01:37:24;3.40;99.90
47482;DHT22;33219;47.410;9.730;2022-12-29T01:39:52;3.50;99.90
47482;DHT22;33219;47.410;9.730;2022-12-29T01:42:22;3.60;99.90
47482;DHT22;33219;47.410;9.730;2022-12-29T01:44:59;3.70;99.90
47482;DHT22;33219;47.410;9.730;2022-12-29T01:47:32;3.70;99.90
47482;DHT22;33219;47.410;9.730;2022-12-29T01:50:02;3.80;99.90
47482;DHT22;33219;47.410;9.730;2022-12-29T01:52:32;3.90;99.90
47482;DHT22;33219;47.410;9.730;2022-12-29T01:55:02;4.00;99.90
47482;DHT22;33219;47.410;9.730;2022-12-29T01:57:33;4.10;99.90
47482;DHT22;33219;47.410;9.730;2022-12-29T02:00:04;4.10;99.90
47482;DHT22;33219;47.410;9.730;2022-12-29T02:02:32;4.20;99.90
47482;DHT22;33219;47.410;9.730;2022-12-29T02:05:04;4.30;99.90
47482;DHT22;33219;47.410;9.730;2022-12-29T02:07:31;4.30;99.90
47482;DHT22;33219;47.410;9.730;2022-12-29T02:10:00;4.30;99.90
47482;DHT22;33219;47.410;9.730;2022-12-29T02:12:29;4.20;99.90
47482;DHT22;33219;47.410;9.730;2022-12-29T02:14:59;4.20;99.90
47482;DHT22;33219;47.410;9.730;2022-12-29T02:17:53;4.20;99.90
47482;DHT22;33219;47.410;9.730;2022-12-29T02:33:55;3.20;99.90
47482;DHT22;33219;47.410;9.730;2022-12-29T02:39:36;2.90;99.90
47482;DHT22;33219;47.410;9.730;2022-12-29T02:42:13;2.90;99.90
47482;DHT22;33219;47.410;9.730;2022-12-29T02:44:56;2.90;99.90
47482;DHT22;33219;47.410;9.730;2022-12-29T02:47:35;2.90;99.90
47482;DHT22;33219;47.410;9.730;2022-12-29T02:55:19;3.10;99.90
47482;DHT22;33219;47.410;9.730;2022-12-29T02:57:47;3.10;99.90
47482;DHT22;33219;47.410;9.730;2022-12-29T03:00:16;3.30;99.90
47482;DHT22;33219;47.410;9.730;2022-12-29T03:05:49;3.80;99.90
47482;DHT22;33219;47.410;9.730;2022-12-29T03:11:07;4.40;99.90
47482;DHT22;33219;47.410;9.730;2022-12-29T03:13:51;4.50;99.90
47482;DHT22;33219;47.410;9.730;2022-12-29T03:16:42;4.50;99.90
47482;DHT22;33219;47.410;9.730;2022-12-29T03:19:18;4.70;99.90
47482;DHT22;33219;47.410;9.730;2022-12-29T03:21:52;4.80;99.90
47482;DHT22;33219;47.410;9.730;2022-12-29T03:24:39;4.90;99.90
47482;DHT22;33219;47.410;9.730;2022-12-29T03:27:10;5.00;99.90
47482;DHT22;33219;47.410;9.730;2022-12-29T03:29:45;5.10;99.90
47482;DHT22;33219;47.410;9.730;2022-12-29T03:32:13;5.30;99.90
47482;DHT22;33219;47.410;9.730;2022-12-29T03:34:42;5.30;99.90
47482;DHT22;33219;47.410;9.730;2022-12-29T03:37:15;5.30;99.90
47482;DHT22;33219;47.410;9.730;2022-12-29T03:39:43;5.40;99.90
47482;DHT22;33219;47.410;9.730;2022-12-29T03:42:17;5.50;99.90
47482;DHT22;33219;47.410;9.730;2022-12-29T03:44:46;5.50;99.90
47482;DHT22;33219;47.410;9.730;2022-12-29T03:47:14;5.50;99.60
47482;DHT22;33219;47.410;9.730;2022-12-29T03:49:42;5.50;99.90
47482;DHT22;33219;47.410;9.730;2022-12-29T03:52:09;5.50;99.90
47482;DHT22;33219;47.410;9.730;2022-12-29T03:54:37;5.40;99.90
47482;DHT22;33219;47.410;9.730;2022-12-29T03:57:05;5.50;99.80
47482;DHT22;33219;47.410;9.730;2022-12-29T03:59:32;5.50;99.90
47482;DHT22;33219;47.410;9.730;2022-12-29T04:02:00;5.60;99.20
47482;DHT22;33219;47.410;9.730;2022-12-29T04:04:27;5.70;99.70
47482;DHT22;33219;47.410;9.730;2022-12-29T04:06:55;5.60;99.90
47482;DHT22;33219;47.410;9.730;2022-12-29T04:09:22;5.60;99.90
47482;DHT22;33219;47.410;9.730;2022-12-29T04:11:50;5.60;99.90
47482;DHT22;33219;47.410;9.730;2022-12-29T04:14:18;5.60;99.90
47482;DHT22;33219;47.410;9.730;2022-12-29T04:16:45;5.50;99.90
47482;DHT22;33219;47.410;9.730;2022-12-29T04:19:13;5.50;99.90
47482;DHT22;33219;47.410;9.730;2022-12-29T04:21:40;5.50;99.90
47482;DHT22;33219;47.410;9.730;2022-12-29T04:24:08;5.40;99.90
47482;DHT22;33219;47.410;9.730;2022-12-29T04:26:36;5.30;99.90
47482;DHT22;33219;47.410;9.730;2022-12-29T04:29:03;5.20;99.90
47482;DHT22;33219;47.410;9.730;2022-12-29T04:31:31;5.20;99.90
47482;DHT22;33219;47.410;9.730;2022-12-29T04:33:58;5.30;99.90
47482;DHT22;33219;47.410;9.730;2022-12-29T04:36:26;5.30;99.90
47482;DHT22;33219;47.410;9.730;2022-12-29T04:38:54;5.30;99.90
47482;DHT22;33219;47.410;9.730;2022-12-29T04:41:21;5.20;99.90
47482;DHT22;33219;47.410;9.730;2022-12-29T04:43:49;5.20;99.90
47482;DHT22;33219;47.410;9.730;2022-12-29T04:46:16;5.00;99.90
47482;DHT22;33219;47.410;9.730;2022-12-29T04:48:44;5.10;99.90
47482;DHT22;33219;47.410;9.730;2022-12-29T04:51:12;5.00;99.90
47482;DHT22;33219;47.410;9.730;2022-12-29T04:53:39;5.00;99.90
47482;DHT22;33219;47.410;9.730;2022-12-29T04:56:07;5.00;99.90
47482;DHT22;33219;47.410;9.730;2022-12-29T04:58:36;5.00;99.90
47482;DHT22;33219;47.410;9.730;2022-12-29T05:01:04;5.10;99.90
47482;DHT22;33219;47.410;9.730;2022-12-29T05:03:31;5.00;99.90
47482;DHT22;33219;47.410;9.730;2022-12-29T05:05:59;5.00;99.90
47482;DHT22;33219;47.410;9.730;2022-12-29T05:08:26;4.90;99.90
47482;DHT22;33219;47.410;9.730;2022-12-29T05:10:54;4.90;99.90
47482;DHT22;33219;47.410;9.730;2022-12-29T05:13:21;4.90;99.90
47482;DHT22;33219;47.410;9.730;2022-12-29T05:15:53;4.80;99.90
47482;DHT22;33219;47.410;9.730;2022-12-29T05:18:20;4.80;99.90
47482;DHT22;33219;47.410;9.730;2022-12-29T05:20:48;4.70;99.90
47482;DHT22;33219;47.410;9.730;2022-12-29T05:23:16;4.70;99.90
47482;DHT22;33219;47.410;9.730;2022-12-29T05:25:44;4.70;99.90
47482;DHT22;33219;47.410;9.730;2022-12-29T05:28:14;4.80;99.90
47482;DHT22;33219;47.410;9.730;2022-12-29T05:30:42;5.10;99.90
47482;DHT22;33219;47.410;9.730;2022-12-29T05:33:09;5.20;99.90
47482;DHT22;33219;47.410;9.730;2022-12-29T05:35:37;5.20;99.90
47482;DHT22;33219;47.410;9.730;2022-12-29T05:38:05;5.40;99.90
47482;DHT22;33219;47.410;9.730;2022-12-29T05:40:33;5.30;99.90
47482;DHT22;33219;47.410;9.730;2022-12-29T05:43:00;5.30;99.90
47482;DHT22;33219;47.410;9.730;2022-12-29T05:45:28;5.30;99.90
47482;DHT22;33219;47.410;9.730;2022-12-29T05:47:56;5.20;99.90
47482;DHT22;33219;47.410;9.730;2022-12-29T05:50:23;5.10;99.90
47482;DHT22;33219;47.410;9.730;2022-12-29T05:52:51;5.00;99.90
47482;DHT22;33219;47.410;9.730;2022-12-29T05:55:18;4.90;99.90
47482;DHT22;33219;47.410;9.730;2022-12-29T05:57:46;4.90;99.90
47482;DHT22;33219;47.410;9.730;2022-12-29T06:00:14;4.70;99.90
47482;DHT22;33219;47.410;9.730;2022-12-29T06:02:45;4.50;99.90
47482;DHT22;33219;47.410;9.730;2022-12-29T06:05:12;4.40;99.90
47482;DHT22;33219;47.410;9.730;2022-12-29T06:07:40;4.30;99.90
47482;DHT22;33219;47.410;9.730;2022-12-29T06:10:08;4.20;99.90
47482;DHT22;33219;47.410;9.730;2022-12-29T06:12:35;4.20;99.90
47482;DHT22;33219;47.410;9.730;2022-12-29T06:15:03;4.10;99.90
47482;DHT22;33219;47.410;9.730;2022-12-29T06:17:31;4.00;99.90
47482;DHT22;33219;47.410;9.730;2022-12-29T06:19:59;4.30;99.90
47482;DHT22;33219;47.410;9.730;2022-12-29T06:22:26;4.50;99.90
47482;DHT22;33219;47.410;9.730;2022-12-29T06:24:54;4.60;99.90
47482;DHT22;33219;47.410;9.730;2022-12-29T06:27:21;4.60;99.90
47482;DHT22;33219;47.410;9.730;2022-12-29T06:29:49;4.70;99.90
47482;DHT22;33219;47.410;9.730;2022-12-29T06:32:16;5.00;99.90
47482;DHT22;33219;47.410;9.730;2022-12-29T06:34:44;5.10;99.90
47482;DHT22;33219;47.410;9.730;2022-12-29T06:37:12;5.00;99.90
47482;DHT22;33219;47.410;9.730;2022-12-29T06:39:39;5.00;99.90
47482;DHT22;33219;47.410;9.730;2022-12-29T06:42:09;5.00;99.90
47482;DHT22;33219;47.410;9.730;2022-12-29T06:44:36;4.90;99.90
47482;DHT22;33219;47.410;9.730;2022-12-29T06:47:04;4.80;99.90
47482;DHT22;33219;47.410;9.730;2022-12-29T06:49:32;5.30;97.80
47482;DHT22;33219;47.410;9.730;2022-12-29T06:51:59;5.40;99.60
47482;DHT22;33219;47.410;9.730;2022-12-29T06:54:28;5.30;99.90
47482;DHT22;33219;47.410;9.730;2022-12-29T06:56:56;5.10;99.90
47482;DHT22;33219;47.410;9.730;2022-12-29T06:59:24;5.00;99.90
47482;DHT22;33219;47.410;9.730;2022-12-29T07:01:52;4.80;99.90
47482;DHT22;33219;47.410;9.730;2022-12-29T07:04:20;4.60;99.90
47482;DHT22;33219;47.410;9.730;2022-12-29T07:06:48;4.50;99.90
47482;DHT22;33219;47.410;9.730;2022-12-29T07:09:16;4.70;99.90
47482;DHT22;33219;47.410;9.730;2022-12-29T07:11:45;4.80;99.90
47482;DHT22;33219;47.410;9.730;2022-12-29T07:14:13;4.90;99.90
47482;DHT22;33219;47.410;9.730;2022-12-29T07:16:40;5.00;99.90
47482;DHT22;33219;47.410;9.730;2022-12-29T07:19:08;5.00;99.90
47482;DHT22;33219;47.410;9.730;2022-12-29T07:21:35;5.10;99.90
47482;DHT22;33219;47.410;9.730;2022-12-29T07:24:03;5.20;99.90
47482;DHT22;33219;47.410;9.730;2022-12-29T07:26:30;5.30;99.90
47482;DHT22;33219;47.410;9.730;2022-12-29T07:29:00;5.40;99.90
47482;DHT22;33219;47.410;9.730;2022-12-29T07:31:30;5.40;99.90
47482;DHT22;33219;47.410;9.730;2022-12-29T07:33:58;5.50;99.90
47482;DHT22;33219;47.410;9.730;2022-12-29T07:36:26;5.60;99.90
47482;DHT22;33219;47.410;9.730;2022-12-29T07:38:53;5.60;99.90
47482;DHT22;33219;47.410;9.730;2022-12-29T07:41:21;5.70;99.90
47482;DHT22;33219;47.410;9.730;2022-12-29T07:43:49;5.80;99.90
47482;DHT22;33219;47.410;9.730;2022-12-29T07:46:16;5.90;99.90
47482;DHT22;33219;47.410;9.730;2022-12-29T07:48:44;5.90;99.90
47482;DHT22;33219;47.410;9.730;2022-12-29T07:51:11;6.00;99.90
47482;DHT22;33219;47.410;9.730;2022-12-29T07:53:39;6.10;99.90
47482;DHT22;33219;47.410;9.730;2022-12-29T07:56:07;6.30;99.90
47482;DHT22;33219;47.410;9.730;2022-12-29T07:58:34;6.40;99.90
47482;DHT22;33219;47.410;9.730;2022-12-29T08:01:02;6.50;99.90
47482;DHT22;33219;47.410;9.730;2022-12-29T08:03:29;6.60;99.90
47482;DHT22;33219;47.410;9.730;2022-12-29T08:05:57;6.70;99.90
47482;DHT22;33219;47.410;9.730;2022-12-29T08:08:25;6.80;99.70
47482;DHT22;33219;47.410;9.730;2022-12-29T08:10:52;7.00;99.60
47482;DHT22;33219;47.410;9.730;2022-12-29T08:13:20;7.10;99.80
47482;DHT22;33219;47.410;9.730;2022-12-29T08:15:47;7.30;99.10
47482;DHT22;33219;47.410;9.730;2022-12-29T08:18:15;7.30;98.60
47482;DHT22;33219;47.410;9.730;2022-12-29T08:20:42;7.40;98.10
47482;DHT22;33219;47.410;9.730;2022-12-29T08:23:10;7.50;98.50
47482;DHT22;33219;47.410;9.730;2022-12-29T08:25:38;7.50;98.50
47482;DHT22;33219;47.410;9.730;2022-12-29T08:28:05;7.70;98.60
47482;DHT22;33219;47.410;9.730;2022-12-29T08:30:33;7.80;98.30
47482;DHT22;33219;47.410;9.730;2022-12-29T08:33:01;8.00;97.80
47482;DHT22;33219;47.410;9.730;2022-12-29T08:35:28;8.30;96.60
47482;DHT22;33219;47.410;9.730;2022-12-29T08:37:56;8.30;97.30
47482;DHT22;33219;47.410;9.730;2022-12-29T08:40:23;8.40;97.50
47482;DHT22;33219;47.410;9.730;2022-12-29T08:42:51;8.40;96.50
47482;DHT22;33219;47.410;9.730;2022-12-29T08:45:19;8.50;96.70
47482;DHT22;33219;47.410;9.730;2022-12-29T08:47:46;8.40;96.40
47482;DHT22;33219;47.410;9.730;2022-12-29T08:50:14;8.30;97.10
47482;DHT22;33219;47.410;9.730;2022-12-29T08:52:41;8.20;97.10
47482;DHT22;33219;47.410;9.730;2022-12-29T08:55:09;8.20;96.50
47482;DHT22;33219;47.410;9.730;2022-12-29T08:57:37;8.20;96.60
47482;DHT22;33219;47.410;9.730;2022-12-29T09:00:05;8.20;96.80
47482;DHT22;33219;47.410;9.730;2022-12-29T09:02:33;8.20;96.80
47482;DHT22;33219;47.410;9.730;2022-12-29T09:05:00;8.30;96.70
47482;DHT22;33219;47.410;9.730;2022-12-29T09:07:28;8.30;96.70
47482;DHT22;33219;47.410;9.730;2022-12-29T09:09:55;8.40;96.50
47482;DHT22;33219;47.410;9.730;2022-12-29T09:12:23;8.50;95.90
47482;DHT22;33219;47.410;9.730;2022-12-29T09:14:51;8.60;95.80
47482;DHT22;33219;47.410;9.730;2022-12-29T09:17:18;8.60;96.50
47482;DHT22;33219;47.410;9.730;2022-12-29T09:20:04;8.70;97.30
47482;DHT22;33219;47.410;9.730;2022-12-29T09:22:32;8.80;97.10
47482;DHT22;33219;47.410;9.730;2022-12-29T09:24:59;8.80;97.20
47482;DHT22;33219;47.410;9.730;2022-12-29T09:27:27;8.80;95.90
47482;DHT22;33219;47.410;9.730;2022-12-29T09:29:55;8.90;96.30
47482;DHT22;33219;47.410;9.730;2022-12-29T09:32:23;9.00;96.30
47482;DHT22;33219;47.410;9.730;2022-12-29T09:34:52;8.90;96.20
47482;DHT22;33219;47.410;9.730;2022-12-29T09:37:19;9.00;96.70
47482;DHT22;33219;47.410;9.730;2022-12-29T09:39:47;9.20;96.30
47482;DHT22;33219;47.410;9.730;2022-12-29T09:45:23;9.50;96.10
47482;DHT22;33219;47.410;9.730;2022-12-29T09:47:46;9.70;95.90
47482;DHT22;33219;47.410;9.730;2022-12-29T09:53:09;9.80;95.30
47482;DHT22;33219;47.410;9.730;2022-12-29T09:55:46;9.90;95.30
47482;DHT22;33219;47.410;9.730;2022-12-29T09:58:29;10.00;94.60
47482;DHT22;33219;47.410;9.730;2022-12-29T10:01:04;10.10;94.30
47482;DHT22;33219;47.410;9.730;2022-12-29T10:03:50;10.20;94.30
47482;DHT22;33219;47.410;9.730;2022-12-29T10:06:24;10.40;93.70
47482;DHT22;33219;47.410;9.730;2022-12-29T10:14:45;10.20;95.60
47482;DHT22;33219;47.410;9.730;2022-12-29T10:22:41;9.70;96.20
47482;DHT22;33219;47.410;9.730;2022-12-29T10:25:25;9.60;94.80
47482;DHT22;33219;47.410;9.730;2022-12-29T10:27:48;9.50;94.80
47482;DHT22;33219;47.410;9.730;2022-12-29T10:30:17;9.50;95.30
47482;DHT22;33219;47.410;9.730;2022-12-29T10:32:56;9.50;94.00
47482;DHT22;33219;47.410;9.730;2022-12-29T10:35:26;9.60;94.80
47482;DHT22;33219;47.410;9.730;2022-12-29T10:38:28;9.70;94.50
47482;DHT22;33219;47.410;9.730;2022-12-29T10:41:02;9.70;94.00
47482;DHT22;33219;47.410;9.730;2022-12-29T10:43:37;10.00;94.00
47482;DHT22;33219;47.410;9.730;2022-12-29T10:46:05;10.20;93.00
47482;DHT22;33219;47.410;9.730;2022-12-29T10:48:34;10.30;92.30
47482;DHT22;33219;47.410;9.730;2022-12-29T10:51:05;10.40;92.20
47482;DHT22;33219;47.410;9.730;2022-12-29T10:53:46;10.50;91.60
47482;DHT22;33219;47.410;9.730;2022-12-29T10:56:34;10.60;91.30
47482;DHT22;33219;47.410;9.730;2022-12-29T10:59:22;10.60;91.80
47482;DHT22;33219;47.410;9.730;2022-12-29T11:07:07;11.30;84.40
47482;DHT22;33219;47.410;9.730;2022-12-29T11:09:37;11.50;80.90
47482;DHT22;33219;47.410;9.730;2022-12-29T11:12:29;11.70;80.30
47482;DHT22;33219;47.410;9.730;2022-12-29T11:17:47;12.00;76.90
47482;DHT22;33219;47.410;9.730;2022-12-29T11:20:33;12.00;76.80
47482;DHT22;33219;47.410;9.730;2022-12-29T11:23:02;12.20;77.50
47482;DHT22;33219;47.410;9.730;2022-12-29T11:25:30;12.30;73.80
47482;DHT22;33219;47.410;9.730;2022-12-29T11:28:03;12.40;74.50
47482;DHT22;33219;47.410;9.730;2022-12-29T11:30:32;12.60;73.80
47482;DHT22;33219;47.410;9.730;2022-12-29T11:33:02;12.70;74.50
47482;DHT22;33219;47.410;9.730;2022-12-29T11:35:38;12.70;73.20
47482;DHT22;33219;47.410;9.730;2022-12-29T11:38:02;12.60;73.90
47482;DHT22;33219;47.410;9.730;2022-12-29T11:40:32;12.60;72.40
47482;DHT22;33219;47.410;9.730;2022-12-29T11:43:02;12.60;71.70
47482;DHT22;33219;47.410;9.730;2022-12-29T11:45:35;12.50;72.00
47482;DHT22;33219;47.410;9.730;2022-12-29T11:48:08;12.50;72.30
47482;DHT22;33219;47.410;9.730;2022-12-29T11:50:39;12.50;71.10
47482;DHT22;33219;47.410;9.730;2022-12-29T11:53:24;12.60;72.10
47482;DHT22;33219;47.410;9.730;2022-12-29T11:55:58;12.60;70.70
47482;DHT22;33219;47.410;9.730;2022-12-29T11:58:34;12.50;72.40
47482;DHT22;33219;47.410;9.730;2022-12-29T12:01:15;12.70;73.80
47482;DHT22;33219;47.410;9.730;2022-12-29T12:06:32;12.50;74.40
47482;DHT22;33219;47.410;9.730;2022-12-29T12:09:14;12.50;74.00
47482;DHT22;33219;47.410;9.730;2022-12-29T12:11:39;12.50;71.80
47482;DHT22;33219;47.410;9.730;2022-12-29T12:14:23;12.50;72.30
47482;DHT22;33219;47.410;9.730;2022-12-29T12:16:58;12.60;72.00
47482;DHT22;33219;47.410;9.730;2022-12-29T12:19:33;12.60;69.10
47482;DHT22;33219;47.410;9.730;2022-12-29T12:22:15;12.60;70.60
47482;DHT22;33219;47.410;9.730;2022-12-29T12:27:37;12.60;70.50
47482;DHT22;33219;47.410;9.730;2022-12-29T12:30:30;12.60;72.30
47482;DHT22;33219;47.410;9.730;2022-12-29T12:33:18;12.50;72.30
47482;DHT22;33219;47.410;9.730;2022-12-29T12:35:53;12.50;72.00
47482;DHT22;33219;47.410;9.730;2022-12-29T12:44:09;12.50;72.30
47482;DHT22;33219;47.410;9.730;2022-12-29T13:00:09;12.50;68.50
47482;DHT22;33219;47.410;9.730;2022-12-29T13:03:03;12.40;70.20
47482;DHT22;33219;47.410;9.730;2022-12-29T13:05:50;12.30;71.30
47482;DHT22;33219;47.410;9.730;2022-12-29T13:11:22;12.30;69.10
47482;DHT22;33219;47.410;9.730;2022-12-29T13:16:45;12.50;68.40
47482;DHT22;33219;47.410;9.730;2022-12-29T13:19:30;12.60;68.70
47482;DHT22;33219;47.410;9.730;2022-12-29T13:27:53;12.60;72.70
47482;DHT22;33219;47.410;9.730;2022-12-29T13:30:21;12.50;73.90
47482;DHT22;33219;47.410;9.730;2022-12-29T13:33:02;12.50;74.70
47482;DHT22;33219;47.410;9.730;2022-12-29T13:38:35;12.30;74.40
47482;DHT22;33219;47.410;9.730;2022-12-29T13:41:06;12.30;75.30
47482;DHT22;33219;47.410;9.730;2022-12-29T13:43:35;12.20;74.80
47482;DHT22;33219;47.410;9.730;2022-12-29T13:46:09;12.00;75.50
47482;DHT22;33219;47.410;9.730;2022-12-29T13:48:40;12.00;75.70
47482;DHT22;33219;47.410;9.730;2022-12-29T13:51:09;11.90;74.90
47482;DHT22;33219;47.410;9.730;2022-12-29T13:53:54;11.90;74.80
47482;DHT22;33219;47.410;9.730;2022-12-29T13:56:24;11.80;74.90
47482;DHT22;33219;47.410;9.730;2022-12-29T14:02:08;11.60;75.40
47482;DHT22;33219;47.410;9.730;2022-12-29T14:04:30;11.50;75.80
47482;DHT22;33219;47.410;9.730;2022-12-29T14:07:03;11.40;75.90
47482;DHT22;33219;47.410;9.730;2022-12-29T14:09:49;11.30;76.30
47482;DHT22;33219;47.410;9.730;2022-12-29T14:17:42;11.30;78.20
47482;DHT22;33219;47.410;9.730;2022-12-29T14:20:21;11.20;77.70
47482;DHT22;33219;47.410;9.730;2022-12-29T14:26:17;11.20;78.10
47482;DHT22;33219;47.410;9.730;2022-12-29T14:28:34;11.20;79.30
47482;DHT22;33219;47.410;9.730;2022-12-29T14:36:59;11.00;85.20
47482;DHT22;33219;47.410;9.730;2022-12-29T14:39:35;11.00;84.40
47482;DHT22;33219;47.410;9.730;2022-12-29T14:44:56;10.90;84.80
47482;DHT22;33219;47.410;9.730;2022-12-29T14:47:34;11.00;84.70
47482;DHT22;33219;47.410;9.730;2022-12-29T14:50:22;10.90;87.90
47482;DHT22;33219;47.410;9.730;2022-12-29T14:52:55;10.80;90.00
47482;DHT22;33219;47.410;9.730;2022-12-29T14:55:47;10.70;86.90
47482;DHT22;33219;47.410;9.730;2022-12-29T14:58:50;10.70;85.20
47482;DHT22;33219;47.410;9.730;2022-12-29T15:00:49;10.70;87.40
47482;DHT22;33219;47.410;9.730;2022-12-29T15:03:22;10.70;86.50
47482;DHT22;33219;47.410;9.730;2022-12-29T15:06:13;10.70;86.20
47482;DHT22;33219;47.410;9.730;2022-12-29T15:08:24;10.70;87.00
47482;DHT22;33219;47.410;9.730;2022-12-29T15:11:04;10.60;87.60
47482;DHT22;33219;47.410;9.730;2022-12-29T15:13:36;10.60;87.20
47482;DHT22;33219;47.410;9.730;2022-12-29T15:18:53;10.50;88.00
47482;DHT22;33219;47.410;9.730;2022-12-29T15:21:24;10.40;88.00
47482;DHT22;33219;47.410;9.730;2022-12-29T15:23:51;10.40;87.90
47482;DHT22;33219;47.410;9.730;2022-12-29T15:26:21;10.30;89.30
47482;DHT22;33219;47.410;9.730;2022-12-29T15:28:52;10.20;89.00
47482;DHT22;33219;47.410;9.730;2022-12-29T15:31:23;10.30;86.50
47482;DHT22;33219;47.410;9.730;2022-12-29T15:33:54;10.30;87.10
47482;DHT22;33219;47.410;9.730;2022-12-29T15:36:25;10.30;87.80
47482;DHT22;33219;47.410;9.730;2022-12-29T15:38:53;10.20;88.90
47482;DHT22;33219;47.410;9.730;2022-12-29T15:41:36;10.10;89.40
47482;DHT22;33219;47.410;9.730;2022-12-29T15:44:17;10.00;89.80
47482;DHT22;33219;47.410;9.730;2022-12-29T15:46:44;9.90;90.00
47482;DHT22;33219;47.410;9.730;2022-12-29T15:49:14;9.90;89.50
47482;DHT22;33219;47.410;9.730;2022-12-29T15:51:42;9.90;88.70
47482;DHT22;33219;47.410;9.730;2022-12-29T15:54:18;10.00;89.90
47482;DHT22;33219;47.410;9.730;2022-12-29T15:56:47;9.90;90.80
47482;DHT22;33219;47.410;9.730;2022-12-29T15:59:28;9.90;90.20
47482;DHT22;33219;47.410;9.730;2022-12-29T16:01:57;9.80;90.70
47482;DHT22;33219;47.410;9.730;2022-12-29T16:04:27;9.80;91.20
47482;DHT22;33219;47.410;9.730;2022-12-29T16:07:01;9.80;91.50
47482;DHT22;33219;47.410;9.730;2022-12-29T16:12:03;9.70;91.60
47482;DHT22;33219;47.410;9.730;2022-12-29T16:14:56;9.70;91.80
47482;DHT22;33219;47.410;9.730;2022-12-29T16:17:25;9.60;91.90
47482;DHT22;33219;47.410;9.730;2022-12-29T16:19:59;9.50;92.90
47482;DHT22;33219;47.410;9.730;2022-12-29T16:22:32;9.40;92.50
47482;DHT22;33219;47.410;9.730;2022-12-29T16:25:06;9.30;91.60
47482;DHT22;33219;47.410;9.730;2022-12-29T16:27:36;9.40;91.60
47482;DHT22;33219;47.410;9.730;2022-12-29T16:30:07;9.40;92.00
47482;DHT22;33219;47.410;9.730;2022-12-29T16:32:35;9.40;92.90
47482;DHT22;33219;47.410;9.730;2022-12-29T16:35:13;9.30;92.60
47482;DHT22;33219;47.410;9.730;2022-12-29T16:37:40;9.20;92.40
47482;DHT22;33219;47.410;9.730;2022-12-29T16:40:27;9.30;92.60
47482;DHT22;33219;47.410;9.730;2022-12-29T16:43:00;9.30;92.70
47482;DHT22;33219;47.410;9.730;2022-12-29T16:50:43;9.30;92.90
47482;DHT22;33219;47.410;9.730;2022-12-29T16:53:29;9.30;93.00
47482;DHT22;33219;47.410;9.730;2022-12-29T16:56:00;9.20;93.00
47482;DHT22;33219;47.410;9.730;2022-12-29T16:58:28;9.20;93.10
47482;DHT22;33219;47.410;9.730;2022-12-29T17:00:59;9.10;94.00
47482;DHT22;33219;47.410;9.730;2022-12-29T17:03:38;9.00;94.30
47482;DHT22;33219;47.410;9.730;2022-12-29T17:06:13;8.90;94.40
47482;DHT22;33219;47.410;9.730;2022-12-29T17:08:41;8.90;94.80
47482;DHT22;33219;47.410;9.730;2022-12-29T17:11:20;8.80;94.80
47482;DHT22;33219;47.410;9.730;2022-12-29T17:14:03;8.70;95.70
47482;DHT22;33219;47.410;9.730;2022-12-29T17:16:30;8.60;95.70
47482;DHT22;33219;47.410;9.730;2022-12-29T17:18:58;8.50;96.00
47482;DHT22;33219;47.410;9.730;2022-12-29T17:21:27;8.50;96.10
47482;DHT22;33219;47.410;9.730;2022-12-29T17:23:55;8.40;95.10
47482;DHT22;33219;47.410;9.730;2022-12-29T17:26:23;8.50;94.90
47482;DHT22;33219;47.410;9.730;2022-12-29T17:28:51;8.50;95.60
47482;DHT22;33219;47.410;9.730;2022-12-29T17:31:18;8.50;96.10
47482;DHT22;33219;47.410;9.730;2022-12-29T17:33:46;8.50;96.10
47482;DHT22;33219;47.410;9.730;2022-12-29T17:36:14;8.50;95.70
47482;DHT22;33219;47.410;9.730;2022-12-29T17:38:42;8.60;94.70
47482;DHT22;33219;47.410;9.730;2022-12-29T17:41:14;8.60;95.10
47482;DHT22;33219;47.410;9.730;2022-12-29T17:43:42;8.70;95.50
47482;DHT22;33219;47.410;9.730;2022-12-29T17:46:09;8.70;95.20
47482;DHT22;33219;47.410;9.730;2022-12-29T17:48:37;8.70;95.70
47482;DHT22;33219;47.410;9.730;2022-12-29T17:51:05;8.80;95.70
47482;DHT22;33219;47.410;9.730;2022-12-29T17:53:33;8.80;95.60
47482;DHT22;33219;47.410;9.730;2022-12-29T17:56:01;8.70;95.60
47482;DHT22;33219;47.410;9.730;2022-12-29T17:58:29;8.70;95.50
47482;DHT22;33219;47.410;9.730;2022-12-29T18:01:00;8.80;95.20
47482;DHT22;33219;47.410;9.730;2022-12-29T18:03:36;8.80;95.20
47482;DHT22;33219;47.410;9.730;2022-12-29T18:06:05;8.80;95.00
47482;DHT22;33219;47.410;9.730;2022-12-29T18:08:38;8.90;94.70
47482;DHT22;33219;47.410;9.730;2022-12-29T18:11:20;8.90;94.90